Time;durP1;ratioP1;P1;durP2;ratioP2;P2;SDS_P1;SDS_P2;PMS_P1;PMS_P2;Temp;Humidity;BMP_temperature;BMP_pressure;BME280_temperature;BME280_humidity;BME280_pressure;Samples;Min_cycle;Max_cycle;Signal;HPM_P1;HPM_P2
2021/01/13 00:00:53;;;;;;;17.05;5.63;;;3.90;99.90;;;;;;2047206;29;20061;-76
2021/01/13 00:01:53;;;;;;;14.50;6.60;;;3.90;99.90;;;;;;2047195;29;20390;-76
2021/01/13 00:02:54;;;;;;;20.63;5.75;;;4.00;99.90;;;;;;2047943;28;20359;-76
2021/01/13 00:03:55;;;;;;;14.73;5.50;;;4.00;99.90;;;;;;2042332;28;20036;-76
2021/01/13 00:04:56;;;;;;;10.45;5.38;;;3.90;99.90;;;;;;2048795;28;20064;-76
2021/01/13 00:05:56;;;;;;;19.63;5.90;;;3.90;99.90;;;;;;2054175;28;20037;-76
2021/01/13 00:06:57;;;;;;;14.45;5.55;;;3.90;99.90;;;;;;2055132;28;20426;-76
2021/01/13 00:07:57;;;;;;;18.73;6.93;;;3.90;99.90;;;;;;2050080;28;20546;-75
2021/01/13 00:08:58;;;;;;;14.02;6.00;;;3.90;99.90;;;;;;2047316;28;20663;-76
2021/01/13 00:09:58;;;;;;;15.23;5.70;;;3.90;99.90;;;;;;2055175;28;20055;-76
2021/01/13 00:10:59;;;;;;;17.48;5.10;;;3.90;99.90;;;;;;2048132;28;20039;-76
2021/01/13 00:12:00;;;;;;;13.98;5.97;;;3.90;99.90;;;;;;2040016;29;20051;-75
2021/01/13 00:13:02;;;;;;;16.45;5.13;;;3.90;99.90;;;;;;2046868;29;20549;-75
2021/01/13 00:14:03;;;;;;;16.58;5.75;;;3.90;99.90;;;;;;2047653;29;20078;-76
2021/01/13 00:15:05;;;;;;;20.83;6.60;;;3.90;99.90;;;;;;2047325;29;20028;-75
2021/01/13 00:16:06;;;;;;;14.02;5.95;;;3.90;99.90;;;;;;2047830;29;20028;-76
2021/01/13 00:17:07;;;;;;;19.92;6.38;;;3.80;99.90;;;;;;2047309;29;20484;-75
2021/01/13 00:18:07;;;;;;;14.63;5.32;;;3.80;99.90;;;;;;2047644;29;20035;-76
2021/01/13 00:19:08;;;;;;;17.10;6.10;;;3.80;99.90;;;;;;2046800;29;20031;-75
2021/01/13 00:20:09;;;;;;;16.27;5.68;;;3.80;99.90;;;;;;2047282;29;20417;-74
2021/01/13 00:21:17;;;;;;;23.52;7.60;;;3.80;99.90;;;;;;2047612;29;20094;-77
2021/01/13 00:22:17;;;;;;;20.33;6.57;;;3.80;99.90;;;;;;2047892;29;20501;-75
2021/01/13 00:23:18;;;;;;;19.60;6.75;;;3.70;99.90;;;;;;2047562;29;20066;-77
2021/01/13 00:24:20;;;;;;;14.98;6.47;;;3.80;99.90;;;;;;2047610;28;20028;-76
2021/01/13 00:25:21;;;;;;;20.58;8.25;;;3.80;99.90;;;;;;2047037;28;20031;-77
2021/01/13 00:26:22;;;;;;;21.33;7.28;;;3.70;99.90;;;;;;2047633;29;20085;-77
2021/01/13 00:27:23;;;;;;;16.80;6.80;;;3.70;99.90;;;;;;2047410;29;20015;-77
2021/01/13 00:28:24;;;;;;;15.80;7.90;;;3.70;99.90;;;;;;2047298;29;20023;-78
2021/01/13 00:29:24;;;;;;;21.15;7.00;;;3.70;99.90;;;;;;2046892;29;20019;-77
2021/01/13 00:30:25;;;;;;;20.55;7.88;;;3.70;99.90;;;;;;2046908;29;20055;-76
2021/01/13 00:31:26;;;;;;;22.77;6.75;;;3.70;99.90;;;;;;2047884;29;20047;-75
2021/01/13 00:32:26;;;;;;;16.92;6.65;;;3.70;99.90;;;;;;2047530;29;20070;-77
2021/01/13 00:33:27;;;;;;;18.35;6.50;;;3.60;99.90;;;;;;2047796;29;20030;-76
2021/01/13 00:34:28;;;;;;;23.30;7.55;;;3.70;99.90;;;;;;2047634;29;20090;-77
2021/01/13 00:35:29;;;;;;;16.88;7.40;;;3.60;99.90;;;;;;2046731;29;20026;-77
2021/01/13 00:36:30;;;;;;;16.95;6.90;;;3.70;99.90;;;;;;2047326;28;20717;-76
2021/01/13 00:37:30;;;;;;;20.40;7.65;;;3.60;99.90;;;;;;2054804;28;20089;-77
2021/01/13 00:38:31;;;;;;;26.90;8.20;;;3.70;99.90;;;;;;2051130;28;20024;-77
2021/01/13 00:39:31;;;;;;;20.15;7.10;;;3.60;99.90;;;;;;2048487;28;20027;-77
2021/01/13 00:40:32;;;;;;;12.63;6.57;;;3.60;99.90;;;;;;2052816;28;20089;-74
2021/01/13 00:41:36;;;;;;;20.85;6.85;;;3.60;99.90;;;;;;2050018;28;20503;-76
2021/01/13 00:42:46;;;;;;;22.98;6.93;;;3.60;99.90;;;;;;2047526;28;20082;-75
2021/01/13 00:43:50;;;;;;;17.75;6.53;;;3.60;99.90;;;;;;2047427;28;20098;-75
2021/01/13 00:44:50;;;;;;;18.30;5.82;;;3.60;99.90;;;;;;2047544;28;20042;-76
2021/01/13 00:45:51;;;;;;;19.95;6.80;;;3.60;99.90;;;;;;2047547;28;20440;-76
2021/01/13 00:46:51;;;;;;;17.38;6.95;;;3.60;99.90;;;;;;2047078;28;20035;-76
2021/01/13 00:47:53;;;;;;;16.42;6.43;;;3.50;99.90;;;;;;2047651;28;20379;-77
2021/01/13 00:48:53;;;;;;;20.58;7.80;;;3.50;99.90;;;;;;2047111;29;20065;-76
2021/01/13 00:49:54;;;;;;;26.23;7.57;;;3.50;99.90;;;;;;2047426;28;20026;-76
2021/01/13 00:50:54;;;;;;;26.20;7.38;;;3.50;99.90;;;;;;2047102;29;20031;-77
2021/01/13 00:51:55;;;;;;;26.55;7.53;;;3.50;99.90;;;;;;2047402;29;20080;-76
2021/01/13 00:52:55;;;;;;;17.05;6.60;;;3.50;99.90;;;;;;2048124;28;20024;-76
2021/01/13 00:53:56;;;;;;;19.67;6.95;;;3.50;99.90;;;;;;2055196;28;20368;-75
2021/01/13 00:54:57;;;;;;;14.38;6.05;;;3.50;99.90;;;;;;2047316;29;20023;-76
2021/01/13 00:55:57;;;;;;;15.50;6.43;;;3.50;99.90;;;;;;2047043;28;20069;-76
2021/01/13 00:56:58;;;;;;;14.13;6.32;;;3.50;99.90;;;;;;2047022;29;20042;-77
2021/01/13 00:57:59;;;;;;;17.15;6.22;;;3.50;99.90;;;;;;2047603;29;20033;-76
2021/01/13 00:58:59;;;;;;;11.18;5.18;;;3.50;99.90;;;;;;2047566;29;20037;-76
2021/01/13 01:00:00;;;;;;;12.32;5.03;;;3.50;99.90;;;;;;2047463;29;20039;-76
2021/01/13 01:01:02;;;;;;;19.48;6.15;;;3.50;99.90;;;;;;2046726;29;20035;-76
2021/01/13 01:02:02;;;;;;;14.15;5.57;;;3.50;99.90;;;;;;2047083;29;20047;-76
2021/01/13 01:03:03;;;;;;;18.60;6.25;;;3.50;99.90;;;;;;2044118;29;20035;-75
2021/01/13 01:04:05;;;;;;;15.60;5.85;;;3.40;99.90;;;;;;2047336;28;20027;-75
2021/01/13 01:05:06;;;;;;;19.05;6.72;;;3.50;99.90;;;;;;2046112;29;20143;-75
2021/01/13 01:06:11;;;;;;;27.60;7.05;;;3.40;99.90;;;;;;2046880;29;20041;-76
2021/01/13 01:07:12;;;;;;;18.10;6.20;;;3.40;99.90;;;;;;2046981;28;20740;-75
2021/01/13 01:08:13;;;;;;;18.73;6.35;;;3.40;99.90;;;;;;2047471;28;20028;-75
2021/01/13 01:09:13;;;;;;;14.82;6.63;;;3.40;99.90;;;;;;2047154;28;20570;-75
2021/01/13 01:10:19;;;;;;;13.05;6.05;;;3.40;99.90;;;;;;2047650;29;20023;-75
2021/01/13 01:11:22;;;;;;;24.88;6.30;;;3.40;99.90;;;;;;2047278;29;20074;-75
2021/01/13 01:12:23;;;;;;;20.10;6.43;;;3.40;99.90;;;;;;2047907;29;20489;-76
2021/01/13 01:13:23;;;;;;;20.83;6.82;;;3.30;99.90;;;;;;2047481;29;20028;-76
2021/01/13 01:14:24;;;;;;;19.08;5.95;;;3.30;99.90;;;;;;2046945;29;20027;-75
2021/01/13 01:15:25;;;;;;;20.63;7.07;;;3.30;99.90;;;;;;2047078;28;20035;-76
2021/01/13 01:16:34;;;;;;;19.33;6.00;;;3.30;99.90;;;;;;2047484;28;20098;-76
2021/01/13 01:17:35;;;;;;;19.35;6.53;;;3.30;99.90;;;;;;2046690;28;20031;-76
2021/01/13 01:18:35;;;;;;;16.50;6.38;;;3.30;99.90;;;;;;2047482;28;20136;-77
2021/01/13 01:19:37;;;;;;;18.35;6.88;;;3.30;99.90;;;;;;2047369;28;20031;-77
2021/01/13 01:20:38;;;;;;;22.63;6.78;;;3.30;99.90;;;;;;2047659;28;20352;-76
2021/01/13 01:21:42;;;;;;;20.25;6.55;;;3.30;99.90;;;;;;2047250;28;20057;-75
2021/01/13 01:22:57;;;;;;;17.95;6.55;;;3.30;99.90;;;;;;2047482;28;20397;-76
2021/01/13 01:23:57;;;;;;;15.45;5.85;;;3.30;99.90;;;;;;2047190;28;20375;-76
2021/01/13 01:24:58;;;;;;;21.90;6.57;;;3.20;99.90;;;;;;2047419;28;20031;-76
2021/01/13 01:26:01;;;;;;;15.48;6.30;;;3.20;99.90;;;;;;2046722;29;20763;-76
2021/01/13 01:27:01;;;;;;;18.10;7.10;;;3.30;99.90;;;;;;2046908;29;20027;-76
2021/01/13 01:28:02;;;;;;;15.50;6.63;;;3.30;99.90;;;;;;2046842;29;20109;-77
2021/01/13 01:29:03;;;;;;;20.23;5.82;;;3.30;99.90;;;;;;2047375;29;20028;-77
2021/01/13 01:30:04;;;;;;;16.60;6.60;;;3.30;99.90;;;;;;2047444;29;20039;-77
2021/01/13 01:31:05;;;;;;;15.55;5.70;;;3.30;99.90;;;;;;2047257;29;20020;-77
2021/01/13 01:32:05;;;;;;;19.90;6.22;;;3.30;99.90;;;;;;2047357;29;20060;-77
2021/01/13 01:33:06;;;;;;;14.48;6.07;;;3.30;99.90;;;;;;2046783;29;20118;-77
2021/01/13 01:34:07;;;;;;;14.52;6.68;;;3.30;99.90;;;;;;2046221;28;20015;-77
2021/01/13 01:35:08;;;;;;;16.52;6.70;;;3.30;99.90;;;;;;2047717;28;20106;-77
2021/01/13 01:36:09;;;;;;;12.23;5.93;;;3.30;99.90;;;;;;2047255;28;20024;-76
2021/01/13 01:37:09;;;;;;;19.40;7.18;;;3.30;99.90;;;;;;2047020;28;20038;-76
2021/01/13 01:38:10;;;;;;;17.27;6.45;;;3.30;99.90;;;;;;2047029;29;20102;-77
2021/01/13 01:39:11;;;;;;;18.27;6.72;;;3.30;99.90;;;;;;2047193;29;20034;-76
2021/01/13 01:40:14;;;;;;;19.10;6.55;;;3.30;99.90;;;;;;2047644;29;20074;-77
2021/01/13 01:41:15;;;;;;;16.08;5.97;;;3.30;99.90;;;;;;2048210;28;20031;-76
2021/01/13 01:42:16;;;;;;;16.30;5.85;;;3.30;99.90;;;;;;2048159;28;20057;-77
2021/01/13 01:43:17;;;;;;;18.48;6.25;;;3.30;99.90;;;;;;2048275;29;20027;-75
2021/01/13 01:44:17;;;;;;;17.83;7.55;;;3.30;99.90;;;;;;2047743;28;20485;-77
2021/01/13 01:45:21;;;;;;;17.98;7.18;;;3.30;99.90;;;;;;2046516;29;20031;-77
2021/01/13 01:46:23;;;;;;;20.08;6.68;;;3.20;99.90;;;;;;2047230;29;20359;-78
2021/01/13 01:47:58;;;;;;;21.70;6.50;;;3.20;99.90;;;;;;2046852;29;20087;-76
2021/01/13 01:49:00;;;;;;;15.88;6.45;;;3.20;99.90;;;;;;2046724;29;20138;-76
2021/01/13 01:50:01;;;;;;;18.42;6.95;;;3.20;99.90;;;;;;2047337;28;20019;-77
2021/01/13 01:51:02;;;;;;;20.45;7.47;;;3.20;99.90;;;;;;2046772;28;20030;-77
2021/01/13 01:52:14;;;;;;;21.13;7.35;;;3.20;99.90;;;;;;2046937;28;20071;-76
2021/01/13 01:53:22;;;;;;;19.13;6.32;;;3.20;99.90;;;;;;2046823;28;20038;-76
2021/01/13 01:54:26;;;;;;;21.17;7.38;;;3.10;99.90;;;;;;2047362;28;20058;-77
2021/01/13 01:55:34;;;;;;;21.30;6.95;;;3.10;99.90;;;;;;2054088;28;20144;-77
2021/01/13 01:56:39;;;;;;;18.80;6.88;;;3.20;99.90;;;;;;2053555;28;20031;-77
2021/01/13 01:57:40;;;;;;;20.75;7.10;;;3.10;99.90;;;;;;2046435;28;20082;-77
2021/01/13 01:58:50;;;;;;;18.50;6.57;;;3.10;99.90;;;;;;2046617;28;20471;-77
2021/01/13 02:00:04;;;;;;;17.60;6.88;;;3.10;99.90;;;;;;2046962;29;20029;-75
2021/01/13 02:01:05;;;;;;;18.70;6.80;;;3.10;99.90;;;;;;2040930;29;20023;-77
2021/01/13 02:02:09;;;;;;;15.90;6.40;;;3.10;99.90;;;;;;2047170;28;20019;-76
2021/01/13 02:03:16;;;;;;;19.33;7.32;;;3.10;99.90;;;;;;2047246;28;20372;-76
2021/01/13 02:04:22;;;;;;;19.85;7.10;;;3.10;99.90;;;;;;2047277;28;20023;-77
2021/01/13 02:05:24;;;;;;;19.92;6.82;;;3.10;99.90;;;;;;2046829;28;20016;-77
2021/01/13 02:06:32;;;;;;;14.23;6.22;;;3.10;99.90;;;;;;2047128;28;20027;-76
2021/01/13 02:07:33;;;;;;;12.52;6.32;;;3.10;99.90;;;;;;2046328;28;20031;-77
2021/01/13 02:08:39;;;;;;;19.08;6.90;;;3.10;99.90;;;;;;2047045;28;20579;-77
2021/01/13 02:09:39;;;;;;;16.40;6.95;;;3.10;99.90;;;;;;2047053;28;20494;-76
2021/01/13 02:10:41;;;;;;;21.77;8.38;;;3.10;99.90;;;;;;2047189;28;20073;-76
2021/01/13 02:11:47;;;;;;;15.93;6.80;;;3.10;99.90;;;;;;2046928;28;20197;-76
2021/01/13 02:12:52;;;;;;;18.58;7.05;;;3.10;99.90;;;;;;2047116;28;20046;-75
2021/01/13 02:13:53;;;;;;;17.40;6.00;;;3.10;99.90;;;;;;2046814;28;20443;-76
2021/01/13 02:14:55;;;;;;;20.88;6.18;;;3.10;99.90;;;;;;2046757;28;20028;-77
2021/01/13 02:15:56;;;;;;;20.17;6.22;;;3.10;99.90;;;;;;2045934;29;20138;-75
2021/01/13 02:16:58;;;;;;;19.65;6.70;;;3.10;99.90;;;;;;2045939;29;20027;-76
2021/01/13 02:18:03;;;;;;;17.00;6.68;;;3.10;99.90;;;;;;2046609;28;20019;-76
2021/01/13 02:19:14;;;;;;;15.18;7.00;;;3.10;99.90;;;;;;2047132;29;20166;-77
2021/01/13 02:20:15;;;;;;;15.93;6.45;;;3.10;99.90;;;;;;2047005;29;20027;-76
2021/01/13 02:21:17;;;;;;;19.13;6.72;;;3.10;99.90;;;;;;2046959;29;20111;-76
2021/01/13 02:22:26;;;;;;;14.05;6.18;;;3.10;99.90;;;;;;2047316;28;20031;-78
2021/01/13 02:23:33;;;;;;;22.88;7.22;;;3.20;99.90;;;;;;2046479;29;20061;-78
2021/01/13 02:24:56;;;;;;;14.85;6.22;;;3.10;99.90;;;;;;2046518;29;20363;-76
2021/01/13 02:26:20;;;;;;;19.27;6.28;;;3.20;99.90;;;;;;2041317;28;20110;-76
2021/01/13 02:27:42;;;;;;;19.90;5.65;;;3.10;99.90;;;;;;2046333;28;20077;-75
2021/01/13 02:28:58;;;;;;;18.42;6.53;;;3.10;99.90;;;;;;2046354;28;20027;-77
2021/01/13 02:30:02;;;;;;;20.33;6.78;;;3.10;99.90;;;;;;2044150;29;20042;-76
2021/01/13 02:31:03;;;;;;;14.80;6.63;;;3.10;99.90;;;;;;2046775;28;20027;-76
2021/01/13 02:32:17;;;;;;;17.20;6.30;;;3.20;99.90;;;;;;2046862;29;20023;-76
2021/01/13 02:33:38;;;;;;;18.50;5.75;;;3.20;99.90;;;;;;2046981;28;20030;-76
2021/01/13 02:35:01;;;;;;;15.27;6.13;;;3.20;99.90;;;;;;2041306;29;20020;-77
2021/01/13 02:36:10;;;;;;;12.43;6.10;;;3.10;99.90;;;;;;2041398;29;20511;-77
2021/01/13 02:37:36;;;;;;;16.52;6.90;;;3.10;99.90;;;;;;2046157;29;20055;-76
2021/01/13 02:38:38;;;;;;;17.80;6.68;;;3.10;99.90;;;;;;2048526;28;20027;-76
2021/01/13 02:39:41;;;;;;;16.85;5.70;;;3.10;99.90;;;;;;2050489;28;20031;-76
2021/01/13 02:40:48;;;;;;;16.45;6.93;;;3.10;99.90;;;;;;2056311;28;20039;-76
2021/01/13 02:41:53;;;;;;;20.17;6.63;;;3.10;99.90;;;;;;2048858;28;20749;-77
2021/01/13 02:43:09;;;;;;;18.15;6.22;;;3.10;99.90;;;;;;2049186;28;20122;-76
2021/01/13 02:44:11;;;;;;;16.63;6.95;;;3.10;99.90;;;;;;2047447;28;20019;-76
2021/01/13 02:45:19;;;;;;;21.83;7.68;;;3.10;99.90;;;;;;2052846;28;20020;-76
2021/01/13 02:46:55;;;;;;;16.30;7.47;;;3.10;99.90;;;;;;2049587;28;20023;-77
2021/01/13 02:47:59;;;;;;;17.15;6.78;;;3.10;99.90;;;;;;2049656;28;20375;-77
2021/01/13 02:49:02;;;;;;;17.73;6.80;;;3.10;99.90;;;;;;2050663;28;20035;-76
2021/01/13 02:50:06;;;;;;;16.20;5.95;;;3.10;99.90;;;;;;2052354;28;20114;-77
2021/01/13 02:51:24;;;;;;;17.98;6.85;;;3.10;99.90;;;;;;2049599;28;20534;-76
2021/01/13 02:52:30;;;;;;;14.38;6.00;;;3.20;99.90;;;;;;2049790;28;20031;-77
2021/01/13 02:53:31;;;;;;;15.90;5.78;;;3.10;99.90;;;;;;2049322;28;20023;-76
2021/01/13 02:54:40;;;;;;;22.80;6.88;;;3.10;99.90;;;;;;2049803;28;20035;-77
2021/01/13 02:55:46;;;;;;;15.35;6.63;;;3.10;99.90;;;;;;2049668;28;20122;-77
2021/01/13 02:56:52;;;;;;;18.17;6.38;;;3.10;99.90;;;;;;2049010;28;20053;-76
2021/01/13 02:57:54;;;;;;;17.20;5.72;;;3.20;99.90;;;;;;2049692;28;20509;-77
2021/01/13 02:59:04;;;;;;;17.35;6.07;;;3.20;99.90;;;;;;2049409;28;20035;-76
2021/01/13 03:00:07;;;;;;;19.23;5.82;;;3.20;99.90;;;;;;2048989;29;20114;-77
2021/01/13 03:01:09;;;;;;;15.40;6.82;;;3.20;99.90;;;;;;2049850;29;20135;-77
2021/01/13 03:02:10;;;;;;;18.65;6.70;;;3.20;99.90;;;;;;2049790;29;20031;-76
2021/01/13 03:03:14;;;;;;;24.02;8.05;;;3.20;99.90;;;;;;2049783;28;20082;-76
2021/01/13 03:04:15;;;;;;;16.00;7.88;;;3.20;99.90;;;;;;2049801;29;20041;-76
2021/01/13 03:05:17;;;;;;;21.65;7.78;;;3.20;99.90;;;;;;2051804;28;20717;-76
2021/01/13 03:06:17;;;;;;;16.98;6.55;;;3.20;99.90;;;;;;2051107;29;20522;-76
2021/01/13 03:07:25;;;;;;;16.58;6.22;;;3.20;99.90;;;;;;2050355;28;20070;-76
2021/01/13 03:08:53;;;;;;;16.52;6.70;;;3.20;99.90;;;;;;2057991;28;20082;-77
2021/01/13 03:09:57;;;;;;;13.57;6.70;;;3.20;99.90;;;;;;2036166;29;20192;-77
2021/01/13 03:10:59;;;;;;;16.55;7.18;;;3.20;99.90;;;;;;2045748;29;20030;-76
2021/01/13 03:11:59;;;;;;;17.65;8.30;;;3.20;99.90;;;;;;2050474;29;20027;-77
2021/01/13 03:13:02;;;;;;;14.00;7.63;;;3.30;99.90;;;;;;2050917;29;20019;-77
2021/01/13 03:14:32;;;;;;;18.83;7.70;;;3.30;99.90;;;;;;2050409;28;20471;-76
2021/01/13 03:15:35;;;;;;;14.02;6.80;;;3.30;99.90;;;;;;2049556;29;20054;-77
2021/01/13 03:16:43;;;;;;;21.00;7.07;;;3.30;99.90;;;;;;2050667;29;20038;-76
2021/01/13 03:18:15;;;;;;;15.90;6.40;;;3.30;99.90;;;;;;2050312;29;20505;-76
2021/01/13 03:19:22;;;;;;;12.98;6.05;;;3.30;99.90;;;;;;2044427;28;20130;-76
2021/01/13 03:20:46;;;;;;;21.15;6.72;;;3.30;99.90;;;;;;2057382;28;20147;-77
2021/01/13 03:21:58;;;;;;;17.13;6.07;;;3.30;99.90;;;;;;2050461;28;20028;-77
2021/01/13 03:23:22;;;;;;;13.57;6.25;;;3.30;99.90;;;;;;2050966;29;20114;-76
2021/01/13 03:24:49;;;;;;;10.60;5.43;;;3.30;99.90;;;;;;2104360;28;20576;-78
2021/01/13 03:25:56;;;;;;;15.38;6.63;;;3.30;99.90;;;;;;2104150;28;20028;-76
2021/01/13 03:26:59;;;;;;;16.55;7.38;;;3.30;99.90;;;;;;2102017;28;20033;-76
2021/01/13 03:28:01;;;;;;;16.67;7.00;;;3.30;99.90;;;;;;2103155;28;20059;-76
2021/01/13 03:29:02;;;;;;;14.38;7.13;;;3.30;99.90;;;;;;2100426;28;20036;-76
2021/01/13 03:30:05;;;;;;;22.98;7.93;;;3.30;99.90;;;;;;2103637;28;20043;-76
2021/01/13 03:31:07;;;;;;;16.63;7.25;;;3.30;99.90;;;;;;2095717;28;20017;-77
2021/01/13 03:32:13;;;;;;;19.45;7.25;;;3.40;99.90;;;;;;2095725;28;20039;-76
2021/01/13 03:33:23;;;;;;;16.17;7.05;;;3.40;99.90;;;;;;2096169;28;20083;-76
2021/01/13 03:34:28;;;;;;;15.00;6.47;;;3.40;99.90;;;;;;2100322;28;20530;-76
2021/01/13 03:35:42;;;;;;;13.48;6.72;;;3.40;99.90;;;;;;2099036;28;20025;-77
2021/01/13 03:36:55;;;;;;;18.40;7.38;;;3.40;99.90;;;;;;2101223;28;20616;-76
2021/01/13 03:37:59;;;;;;;17.63;6.50;;;3.40;99.90;;;;;;2095587;28;20025;-76
2021/01/13 03:39:07;;;;;;;15.80;6.93;;;3.40;99.90;;;;;;2095659;28;20112;-76
2021/01/13 03:40:10;;;;;;;14.50;6.97;;;3.40;99.90;;;;;;2095878;28;20031;-76
2021/01/13 03:41:15;;;;;;;19.23;7.25;;;3.40;99.90;;;;;;2096246;28;20020;-76
2021/01/13 03:42:17;;;;;;;18.67;7.13;;;3.40;99.90;;;;;;2099227;28;20024;-76
2021/01/13 03:43:22;;;;;;;18.25;7.97;;;3.40;99.90;;;;;;2102016;28;20035;-77
2021/01/13 03:44:28;;;;;;;20.17;7.88;;;3.40;99.90;;;;;;2099858;28;20069;-75
2021/01/13 03:45:33;;;;;;;16.95;7.38;;;3.40;99.90;;;;;;2097215;28;20035;-76
2021/01/13 03:46:34;;;;;;;18.98;7.68;;;3.50;99.90;;;;;;2097947;28;20565;-76
2021/01/13 03:47:40;;;;;;;16.70;7.72;;;3.40;99.90;;;;;;2098946;28;20032;-76
2021/01/13 03:48:46;;;;;;;16.65;7.57;;;3.40;99.90;;;;;;2095628;28;20017;-75
2021/01/13 03:50:08;;;;;;;14.20;7.00;;;3.50;99.90;;;;;;2095821;28;20024;-75
2021/01/13 03:51:24;;;;;;;17.63;7.68;;;3.40;99.90;;;;;;2096490;28;20112;-76
2021/01/13 03:52:32;;;;;;;17.85;7.70;;;3.50;99.90;;;;;;2104323;28;20036;-76
2021/01/13 03:53:40;;;;;;;17.63;6.88;;;3.50;99.90;;;;;;2096689;28;20017;-76
2021/01/13 03:54:43;;;;;;;15.40;7.30;;;3.50;99.90;;;;;;2095846;28;20391;-78
2021/01/13 03:55:44;;;;;;;17.40;6.93;;;3.50;99.90;;;;;;2094717;28;20400;-76
2021/01/13 03:56:59;;;;;;;12.68;6.78;;;3.50;99.90;;;;;;2094794;28;20096;-76
2021/01/13 03:58:09;;;;;;;18.77;6.68;;;3.50;99.90;;;;;;2094638;28;20047;-78
2021/01/13 03:59:20;;;;;;;18.65;7.43;;;3.40;99.90;;;;;;2095936;28;20025;-76
2021/01/13 04:00:21;;;;;;;14.02;7.13;;;3.40;99.90;;;;;;2095695;28;20206;-76
2021/01/13 04:01:22;;;;;;;16.55;6.45;;;3.40;99.90;;;;;;2095900;28;20032;-77
2021/01/13 04:02:37;;;;;;;15.30;6.78;;;3.40;99.90;;;;;;2094479;28;20024;-76
2021/01/13 04:03:53;;;;;;;15.80;6.93;;;3.50;99.90;;;;;;2093621;28;20404;-77
2021/01/13 04:05:14;;;;;;;14.23;6.88;;;3.50;99.90;;;;;;2101803;28;20035;-74
2021/01/13 04:06:15;;;;;;;13.20;7.43;;;3.50;99.90;;;;;;2096824;28;20087;-79
2021/01/13 04:07:16;;;;;;;15.35;7.63;;;3.40;99.90;;;;;;2094189;28;20724;-77
2021/01/13 04:08:18;;;;;;;19.63;6.65;;;3.50;99.90;;;;;;2094108;28;20021;-76
2021/01/13 04:09:19;;;;;;;16.02;6.53;;;3.40;99.90;;;;;;2094821;28;20025;-75
2021/01/13 04:10:20;;;;;;;18.25;6.78;;;3.50;99.90;;;;;;2094318;28;20020;-75
2021/01/13 04:11:22;;;;;;;18.05;6.80;;;3.50;99.90;;;;;;2094119;28;20052;-76
2021/01/13 04:12:29;;;;;;;17.48;7.45;;;3.50;99.90;;;;;;2094147;28;20036;-74
2021/01/13 04:13:52;;;;;;;16.70;7.07;;;3.50;99.90;;;;;;2094496;28;20021;-76
2021/01/13 04:14:57;;;;;;;16.45;5.90;;;3.50;99.90;;;;;;2094472;28;20024;-76
2021/01/13 04:16:00;;;;;;;16.85;6.25;;;3.50;99.90;;;;;;2099149;28;20027;-76
2021/01/13 04:17:02;;;;;;;14.35;6.05;;;3.50;99.90;;;;;;2101731;28;20066;-76
2021/01/13 04:18:09;;;;;;;15.13;6.10;;;3.50;99.90;;;;;;2101299;28;20036;-76
2021/01/13 04:19:10;;;;;;;14.98;6.43;;;3.50;99.90;;;;;;2102097;28;20025;-76
2021/01/13 04:20:11;;;;;;;13.63;6.00;;;3.50;99.90;;;;;;2101852;28;20032;-78
2021/01/13 04:21:15;;;;;;;17.13;6.20;;;3.50;99.90;;;;;;2101541;28;20028;-75
2021/01/13 04:22:18;;;;;;;15.05;6.50;;;3.50;99.90;;;;;;2094621;28;20488;-76
2021/01/13 04:23:19;;;;;;;16.50;7.07;;;3.50;99.90;;;;;;2098996;28;20119;-76
2021/01/13 04:24:20;;;;;;;17.83;6.60;;;3.50;99.90;;;;;;2095816;28;20032;-77
2021/01/13 04:25:21;;;;;;;17.45;7.22;;;3.50;99.90;;;;;;2093916;28;20025;-76
2021/01/13 04:26:22;;;;;;;16.00;6.70;;;3.50;99.90;;;;;;2099535;28;20056;-77
2021/01/13 04:27:23;;;;;;;16.55;6.97;;;3.50;99.90;;;;;;2100548;28;20566;-76
2021/01/13 04:28:24;;;;;;;16.45;6.25;;;3.50;99.90;;;;;;2101652;28;20048;-77
2021/01/13 04:29:25;;;;;;;18.27;6.45;;;3.50;99.90;;;;;;2098989;28;20364;-76
2021/01/13 04:30:27;;;;;;;15.50;5.65;;;3.50;99.90;;;;;;2098058;28;20103;-76
2021/01/13 04:31:27;;;;;;;18.77;6.75;;;3.60;99.90;;;;;;2097091;28;20032;-77
2021/01/13 04:32:28;;;;;;;18.63;5.90;;;3.50;99.90;;;;;;2095692;28;20100;-76
2021/01/13 04:33:29;;;;;;;14.15;6.07;;;3.50;99.90;;;;;;2096482;28;20071;-75
2021/01/13 04:34:31;;;;;;;11.93;5.97;;;3.50;99.90;;;;;;2103057;28;20364;-77
2021/01/13 04:35:32;;;;;;;17.60;6.47;;;3.50;99.90;;;;;;2093689;28;20035;-75
2021/01/13 04:36:35;;;;;;;17.63;5.25;;;3.50;99.90;;;;;;2093684;28;20046;-76
2021/01/13 04:37:36;;;;;;;13.18;5.32;;;3.50;99.90;;;;;;2094255;28;20024;-76
2021/01/13 04:38:37;;;;;;;12.15;5.75;;;3.50;99.90;;;;;;2092159;28;20492;-76
2021/01/13 04:39:38;;;;;;;14.82;5.72;;;3.50;99.90;;;;;;2088039;28;20032;-76
2021/01/13 04:40:40;;;;;;;14.50;6.00;;;3.50;99.90;;;;;;2088454;28;20020;-75
2021/01/13 04:42:04;;;;;;;11.90;5.78;;;3.50;99.90;;;;;;2090072;28;20464;-77
2021/01/13 04:43:10;;;;;;;12.23;5.57;;;3.50;99.90;;;;;;2085821;28;20041;-76
2021/01/13 04:44:18;;;;;;;19.25;6.38;;;3.50;99.90;;;;;;2088671;28;20029;-76
2021/01/13 04:45:36;;;;;;;16.98;6.00;;;3.50;99.90;;;;;;2088476;28;20021;-76
2021/01/13 04:46:39;;;;;;;15.07;5.93;;;3.50;99.90;;;;;;2089410;28;20021;-75
2021/01/13 04:47:50;;;;;;;28.52;8.13;;;3.50;99.90;;;;;;2088333;28;20096;-76
2021/01/13 04:49:02;;;;;;;16.23;6.20;;;3.50;99.90;;;;;;2088563;28;20152;-75
2021/01/13 04:50:03;;;;;;;15.45;5.47;;;3.40;99.90;;;;;;2093738;28;20024;-76
2021/01/13 04:51:05;;;;;;;13.60;5.65;;;3.40;99.90;;;;;;2097384;28;20024;-75
2021/01/13 04:52:16;;;;;;;12.70;6.05;;;3.40;99.90;;;;;;2095652;28;20403;-75
2021/01/13 04:53:21;;;;;;;14.40;6.32;;;3.40;99.90;;;;;;2092674;28;20029;-75
2021/01/13 04:54:23;;;;;;;13.13;6.68;;;3.40;99.90;;;;;;2088002;28;20021;-77
2021/01/13 04:55:26;;;;;;;19.58;6.53;;;3.40;99.90;;;;;;2089092;28;20033;-76
2021/01/13 04:56:29;;;;;;;17.40;6.32;;;3.40;99.90;;;;;;2088638;28;20102;-76
2021/01/13 04:57:59;;;;;;;13.95;5.85;;;3.50;99.90;;;;;;2088608;28;20028;-77
2021/01/13 04:59:41;;;;;;;14.13;6.28;;;3.40;99.90;;;;;;2095102;28;20044;-76
2021/01/13 05:01:18;;;;;;;19.63;6.72;;;3.40;99.90;;;;;;2088885;28;20044;-75
2021/01/13 05:02:41;;;;;;;17.60;6.90;;;3.30;99.90;;;;;;2088674;28;20028;-76
2021/01/13 05:04:01;;;;;;;15.15;6.22;;;3.40;99.90;;;;;;2088448;28;20037;-76
2021/01/13 05:05:03;;;;;;;20.83;6.93;;;3.40;99.90;;;;;;2088523;28;20045;-77
2021/01/13 05:06:49;;;;;;;14.85;6.25;;;3.40;99.90;;;;;;2091498;28;20016;-76
2021/01/13 05:08:07;;;;;;;12.82;6.90;;;3.40;99.90;;;;;;2090926;28;20423;-76
2021/01/13 05:09:10;;;;;;;14.68;6.00;;;3.30;99.90;;;;;;2094667;28;20033;-78
2021/01/13 05:10:17;;;;;;;13.30;7.35;;;3.40;99.90;;;;;;2087959;28;20017;-77
2021/01/13 05:11:20;;;;;;;18.27;7.15;;;3.40;99.90;;;;;;2088548;28;20475;-75
2021/01/13 05:12:26;;;;;;;20.30;8.55;;;3.40;99.90;;;;;;2088547;28;20102;-76
2021/01/13 05:13:34;;;;;;;15.20;7.55;;;3.40;99.90;;;;;;2088934;28;20868;-76
2021/01/13 05:14:44;;;;;;;14.70;7.15;;;3.40;99.90;;;;;;2087698;28;20112;-77
2021/01/13 05:15:55;;;;;;;;;;;3.40;99.90;;;;;;2081198;28;20083;-77
2021/01/13 05:17:05;;;;;;;13.35;6.43;;;3.30;99.90;;;;;;2087644;28;19950;-76
2021/01/13 05:18:14;;;;;;;16.52;7.00;;;3.30;99.90;;;;;;2087649;28;20484;-76
2021/01/13 05:19:53;;;;;;;15.77;7.70;;;3.30;99.90;;;;;;2093266;28;20090;-76
2021/01/13 05:21:00;;;;;;;16.90;6.95;;;3.30;99.90;;;;;;2094896;28;20037;-77
2021/01/13 05:22:01;;;;;;;23.80;8.52;;;3.30;99.90;;;;;;2088712;28;20112;-76
2021/01/13 05:23:03;;;;;;;15.10;7.65;;;3.30;99.90;;;;;;2088356;28;20025;-76
2021/01/13 05:24:04;;;;;;;19.08;7.97;;;3.40;99.90;;;;;;2087914;28;20046;-75
2021/01/13 05:25:07;;;;;;;18.00;7.82;;;3.40;99.90;;;;;;2088462;28;20092;-76
2021/01/13 05:26:15;;;;;;;13.32;7.05;;;3.40;99.90;;;;;;2091911;28;20021;-77
2021/01/13 05:27:53;;;;;;;16.42;7.97;;;3.40;99.90;;;;;;2095384;28;20025;-76
2021/01/13 05:29:03;;;;;;;22.80;7.60;;;3.40;99.90;;;;;;2092389;28;20025;-76
2021/01/13 05:30:09;;;;;;;12.73;8.02;;;3.40;99.90;;;;;;2095610;28;20028;-76
2021/01/13 05:31:17;;;;;;;13.98;7.35;;;3.40;99.90;;;;;;2089278;28;20395;-76
2021/01/13 05:32:18;;;;;;;16.50;7.72;;;3.40;99.90;;;;;;2095114;28;20016;-76
2021/01/13 05:33:21;;;;;;;16.30;7.35;;;3.40;99.90;;;;;;2095311;28;20061;-76
2021/01/13 05:34:22;;;;;;;16.42;8.15;;;3.50;99.90;;;;;;2091912;28;20032;-76
2021/01/13 05:35:28;;;;;;;17.23;8.05;;;3.40;99.90;;;;;;2092402;28;20029;-76
2021/01/13 05:36:35;;;;;;;15.85;7.70;;;3.50;99.90;;;;;;2088347;28;20025;-77
2021/01/13 05:38:06;;;;;;;16.50;8.20;;;3.50;99.90;;;;;;2088229;28;20484;-76
2021/01/13 05:39:12;;;;;;;21.13;7.97;;;3.50;99.90;;;;;;2087213;28;20474;-77
2021/01/13 05:40:16;;;;;;;21.05;8.85;;;3.50;99.90;;;;;;2082326;28;20373;-76
2021/01/13 05:41:17;;;;;;;14.73;7.97;;;3.50;99.90;;;;;;2079697;28;20466;-77
2021/01/13 05:42:19;;;;;;;15.05;8.55;;;3.50;99.90;;;;;;2094849;28;20033;-77
2021/01/13 05:43:21;;;;;;;18.80;8.88;;;3.50;99.90;;;;;;2091373;28;20037;-76